Afton Municipal Airport, WY

11:35 AM MST on February 18, 2018 (GMT -0700)
Afton Municipal

Weather History for KAFO - June, 2014

Change the Weather History Date:

Tuesday, June 10, 2014

  Actual Average Record
Temperature  
Mean Temperature 55 °F -  
Max Temperature 75 °F 69 °F 80 °F (2016)
Min Temperature 35 °F 38 °F 35 °F (2014)
Degree Days  
Heating Degree Days 10    
Growing Degree Days 5 (Base 50)    
Moisture  
Dew Point 35 °F    
Average Humidity 52    
Maximum Humidity 87    
Minimum Humidity 22    
Precipitation  
Precipitation 0.00 in - - ()
Sea Level Pressure  
Sea Level Pressure 29.97 in    
Wind  
Wind Speed 3 mph (WNW)    
Max Wind Speed 20 mph    
Max Gust Speed 30 mph    
Visibility 10 miles    
Events      
Averages and records for this station are not official NWS values.
T = Trace of Precipitation, MM = Missing Value Source: NWS Daily Summary

Daily Weather History Graph

Daily Weather History Graph

Search for Another Location

Airport or City:

Trip Planner

Search our weather history database for the weather conditions in past years. The results will help you decide how hot, cold, wet, or windy it might be!

Date:

Astronomy

Jun. 10, 2014 Rise Set
Actual Time 5:45 AM MDT 9:01 PM MDT
Civil Twilight 5:10 AM MDT 9:36 PM MDT
Nautical Twilight 4:25 AM MDT 10:21 PM MDT
Astronomical Twilight 3:30 AM MDT 11:16 PM MDT
Moon 6:27 PM MDT (6/10) 3:57 AM MDT (6/10)
Length of Visible Light 16h 25m
Length of Day
15h 15m
Waxing Gibbous, 92% of the Moon is Illuminated
Jun 10
Waxing Gibbous
Jun 12
Full
Jun 19
Last Quarter
Jun 27
New
Jul 5
First Quarter

Hourly Weather History & Observations

Time (MDT) Temp. Windchill Dew Point Humidity Pressure Visibility Wind Dir Wind Speed Gust Speed Precip Events Conditions
12:15 AM 46.4 °F - 35.6 °F 66% 30.04 in 10.0 mi Calm Calm - N/A   Clear
12:35 AM 44.6 °F 43.1 °F 35.6 °F 71% 30.03 in 10.0 mi WSW 3.5 mph - N/A   Clear
12:55 AM 44.6 °F - 35.6 °F 71% 30.03 in 10.0 mi Calm Calm - N/A   Clear
1:15 AM 41.0 °F - 35.6 °F 81% 30.03 in 10.0 mi Calm Calm - N/A   Clear
1:35 AM 42.8 °F - 33.8 °F 70% 30.03 in 10.0 mi Calm Calm - N/A   Clear
1:55 AM 41.0 °F - 33.8 °F 76% 30.02 in 10.0 mi Calm Calm - N/A   Clear
2:15 AM 42.8 °F - 33.8 °F 70% 30.02 in 10.0 mi Calm Calm - N/A   Clear
2:35 AM 41.0 °F - 35.6 °F 81% 30.02 in 10.0 mi Calm Calm - N/A   Clear
3:15 AM 41.0 °F - 33.8 °F 76% 30.02 in 10.0 mi Calm Calm - N/A   Clear
3:35 AM 37.4 °F - 33.8 °F 87% 30.02 in 10.0 mi Calm Calm - N/A   Clear
3:55 AM 41.0 °F 39.0 °F 33.8 °F 76% 30.01 in 10.0 mi West 3.5 mph - N/A   Clear
4:15 AM 37.4 °F 34.9 °F 33.8 °F 87% 30.01 in 10.0 mi East 3.5 mph - N/A   Clear
4:35 AM 37.4 °F - 32.0 °F 81% 30.01 in 10.0 mi Calm Calm - N/A   Clear
4:55 AM 39.2 °F - 33.8 °F 81% 30.00 in 10.0 mi Calm Calm - N/A   Clear
5:15 AM 37.4 °F - 33.8 °F 87% 30.00 in 10.0 mi Calm Calm - N/A   Clear
5:35 AM 37.4 °F - 33.8 °F 87% 30.00 in 10.0 mi Calm Calm - N/A   Clear
5:55 AM 39.2 °F - 32.0 °F 75% 29.99 in 10.0 mi Calm Calm - N/A   Clear
6:15 AM 35.6 °F 32.8 °F 32.0 °F 87% 30.00 in 10.0 mi NNW 3.5 mph - N/A   Clear
6:35 AM 39.2 °F - 32.0 °F 75% 30.00 in 10.0 mi Calm Calm - N/A   Clear
6:55 AM 41.0 °F 38.0 °F 33.8 °F 76% 29.99 in 10.0 mi SSE 4.6 mph - N/A   Clear
7:15 AM 44.6 °F - 32.0 °F 61% 29.99 in 10.0 mi Calm Calm - N/A   Clear
7:35 AM 44.6 °F - 33.8 °F 66% 29.99 in 10.0 mi Calm Calm - N/A   Clear
7:55 AM 46.4 °F - 35.6 °F 66% 29.99 in 10.0 mi Calm Calm - N/A   Clear
8:15 AM 46.4 °F 45.2 °F 37.4 °F 71% 29.99 in 10.0 mi WNW 3.5 mph - N/A   Clear
8:35 AM 48.2 °F - 37.4 °F 66% 29.99 in 7.0 mi Calm Calm - N/A   Clear
8:55 AM 51.8 °F - 37.4 °F 58% 29.99 in 10.0 mi Calm Calm - N/A   Clear
9:15 AM 51.8 °F - 37.4 °F 58% 29.98 in 10.0 mi Calm Calm - N/A   Clear
9:35 AM 53.6 °F - 41.0 °F 62% 29.97 in 10.0 mi Calm Calm - N/A   Clear
9:55 AM 57.2 °F - 41.0 °F 55% 29.97 in 10.0 mi Calm Calm - N/A   Clear
10:15 AM 59.0 °F - 41.0 °F 51% 29.96 in 10.0 mi Calm Calm - N/A   Clear
10:35 AM 60.8 °F - 41.0 °F 48% 29.96 in 10.0 mi Calm Calm - N/A   Clear
10:55 AM 64.4 °F - 42.8 °F 45% 29.94 in 10.0 mi Calm Calm - N/A   Clear
11:15 AM 68.0 °F - 37.4 °F 33% 29.93 in 10.0 mi Calm Calm - N/A   Clear
11:55 AM 71.6 °F - 33.8 °F 25% 29.92 in 10.0 mi Calm Calm - N/A   Clear
12:15 PM 71.6 °F - 33.8 °F 25% 29.92 in 10.0 mi West 3.5 mph - N/A   Clear
12:35 PM 71.6 °F - 35.6 °F 27% 29.92 in 10.0 mi Calm Calm - N/A   Clear
12:55 PM 71.6 °F - 37.4 °F 29% 29.92 in 10.0 mi NNW 11.5 mph - N/A   Clear
1:35 PM 71.6 °F - 37.4 °F 29% 29.93 in 10.0 mi West 12.7 mph 17.3 mph N/A   Clear
2:15 PM 73.4 °F - 37.4 °F 27% 29.93 in 10.0 mi West 11.5 mph 20.7 mph N/A   Clear
3:15 PM 73.4 °F - 39.2 °F 29% 29.93 in 10.0 mi WNW 8.1 mph - N/A   Clear
3:35 PM 75.2 °F - 35.6 °F 24% 29.93 in 10.0 mi SW 11.5 mph 21.9 mph N/A   Clear
3:55 PM 75.2 °F - 39.2 °F 27% 29.93 in 10.0 mi West 13.8 mph 19.6 mph N/A   Clear
4:15 PM 75.2 °F - 35.6 °F 24% 29.93 in 10.0 mi West 17.3 mph 25.3 mph N/A   Clear
4:35 PM 73.4 °F - 33.8 °F 23% 29.94 in 10.0 mi West 19.6 mph 28.8 mph N/A   Clear
5:15 PM 73.4 °F - 32.0 °F 22% 29.94 in 10.0 mi West 15.0 mph 29.9 mph N/A   Clear
5:35 PM 73.4 °F - 32.0 °F 22% 29.94 in 10.0 mi WSW 17.3 mph 28.8 mph N/A   Clear
5:55 PM 73.4 °F - 32.0 °F 22% 29.93 in 10.0 mi WSW 12.7 mph 26.5 mph N/A   Clear
6:15 PM 71.6 °F - 33.8 °F 25% 29.93 in 10.0 mi NW 10.4 mph - N/A   Clear
6:35 PM 71.6 °F - 33.8 °F 25% 29.93 in 10.0 mi WNW 8.1 mph 24.2 mph N/A   Clear
6:55 PM 69.8 °F - 35.6 °F 28% 29.93 in 10.0 mi WNW 8.1 mph 11.5 mph N/A   Clear
7:15 PM 69.8 °F - 35.6 °F 28% 29.93 in 10.0 mi NW 9.2 mph - N/A   Clear
7:35 PM 69.8 °F - 33.8 °F 27% 29.93 in 10.0 mi NW 5.8 mph - N/A   Clear
7:55 PM 68.0 °F - 33.8 °F 28% 29.93 in 10.0 mi NW 5.8 mph - N/A   Clear
8:15 PM 64.4 °F - 37.4 °F 37% 29.93 in 10.0 mi WNW 3.5 mph - N/A   Clear
8:35 PM 60.8 °F - 35.6 °F 39% 29.94 in 10.0 mi NNW 4.6 mph - N/A   Clear
8:55 PM 59.0 °F - 33.8 °F 39% 29.94 in 10.0 mi NW 3.5 mph - N/A   Clear
9:15 PM 57.2 °F - 32.0 °F 38% 29.94 in 10.0 mi Calm Calm - N/A   Clear
9:35 PM 53.6 °F - 32.0 °F 44% 29.95 in 10.0 mi Calm Calm - N/A   Clear
10:15 PM 51.8 °F - 32.0 °F 47% 29.96 in 10.0 mi NE 4.6 mph - N/A   Clear
10:35 PM 53.6 °F - 32.0 °F 44% 29.97 in 10.0 mi ESE 3.5 mph - N/A   Clear
10:55 PM 51.8 °F - 30.2 °F 44% 29.97 in 10.0 mi Calm Calm - N/A   Clear
11:15 PM 51.8 °F - 28.4 °F 41% 29.96 in 10.0 mi Calm Calm - N/A   Clear
11:35 PM 41.0 °F - 32.0 °F 70% 29.98 in 10.0 mi Calm Calm - N/A   Clear
11:55 PM 42.8 °F - 32.0 °F 66% 29.98 in 10.0 mi Calm Calm - N/A   Clear